sensor_id;sensor_type;location;lat;lon;timestamp;P1;durP1;ratioP1;P2;durP2;ratioP2
53646;SDS011;39550;52.230;5.194;2023-04-24T00:00:10;5.28;;;3.10;;
53646;SDS011;39550;52.230;5.194;2023-04-24T00:02:37;5.05;;;2.90;;
53646;SDS011;39550;52.230;5.194;2023-04-24T00:05:04;4.35;;;2.70;;
53646;SDS011;39550;52.230;5.194;2023-04-24T00:07:30;3.60;;;2.40;;
53646;SDS011;39550;52.230;5.194;2023-04-24T00:09:56;4.53;;;2.72;;
53646;SDS011;39550;52.230;5.194;2023-04-24T00:12:21;4.15;;;2.38;;
53646;SDS011;39550;52.230;5.194;2023-04-24T00:14:46;4.28;;;2.55;;
53646;SDS011;39550;52.230;5.194;2023-04-24T00:17:12;4.57;;;2.60;;
53646;SDS011;39550;52.230;5.194;2023-04-24T00:19:37;3.92;;;2.15;;
53646;SDS011;39550;52.230;5.194;2023-04-24T00:22:03;3.80;;;2.10;;
53646;SDS011;39550;52.230;5.194;2023-04-24T00:24:28;3.92;;;2.20;;
53646;SDS011;39550;52.230;5.194;2023-04-24T00:26:53;3.63;;;2.10;;
53646;SDS011;39550;52.230;5.194;2023-04-24T00:29:19;4.80;;;2.33;;
53646;SDS011;39550;52.230;5.194;2023-04-24T00:31:44;3.83;;;2.22;;
53646;SDS011;39550;52.230;5.194;2023-04-24T00:34:10;3.67;;;2.17;;
53646;SDS011;39550;52.230;5.194;2023-04-24T00:36:36;3.90;;;2.28;;
53646;SDS011;39550;52.230;5.194;2023-04-24T00:39:02;3.83;;;2.00;;
53646;SDS011;39550;52.230;5.194;2023-04-24T00:41:27;5.45;;;2.33;;
53646;SDS011;39550;52.230;5.194;2023-04-24T00:43:53;3.47;;;2.00;;
53646;SDS011;39550;52.230;5.194;2023-04-24T00:46:18;3.70;;;2.20;;
53646;SDS011;39550;52.230;5.194;2023-04-24T00:48:44;3.78;;;1.90;;
53646;SDS011;39550;52.230;5.194;2023-04-24T00:51:10;3.78;;;2.00;;
53646;SDS011;39550;52.230;5.194;2023-04-24T00:53:35;4.40;;;2.00;;
53646;SDS011;39550;52.230;5.194;2023-04-24T00:56:01;3.90;;;1.90;;
53646;SDS011;39550;52.230;5.194;2023-04-24T00:58:27;3.53;;;1.98;;
53646;SDS011;39550;52.230;5.194;2023-04-24T01:00:52;2.72;;;1.70;;
53646;SDS011;39550;52.230;5.194;2023-04-24T01:03:20;3.55;;;2.00;;
53646;SDS011;39550;52.230;5.194;2023-04-24T01:05:47;3.08;;;1.95;;
53646;SDS011;39550;52.230;5.194;2023-04-24T01:08:14;3.50;;;2.03;;
53646;SDS011;39550;52.230;5.194;2023-04-24T01:10:40;3.00;;;1.70;;
53646;SDS011;39550;52.230;5.194;2023-04-24T01:13:06;3.97;;;2.00;;
53646;SDS011;39550;52.230;5.194;2023-04-24T01:15:33;3.45;;;1.80;;
53646;SDS011;39550;52.230;5.194;2023-04-24T01:17:59;3.20;;;1.73;;
53646;SDS011;39550;52.230;5.194;2023-04-24T01:20:24;3.47;;;1.80;;
53646;SDS011;39550;52.230;5.194;2023-04-24T01:22:51;3.60;;;1.70;;
53646;SDS011;39550;52.230;5.194;2023-04-24T01:25:17;3.20;;;1.67;;
53646;SDS011;39550;52.230;5.194;2023-04-24T01:27:43;4.32;;;1.90;;
53646;SDS011;39550;52.230;5.194;2023-04-24T01:30:08;5.55;;;1.90;;
53646;SDS011;39550;52.230;5.194;2023-04-24T01:32:35;4.05;;;2.00;;
53646;SDS011;39550;52.230;5.194;2023-04-24T01:35:01;3.53;;;1.98;;
53646;SDS011;39550;52.230;5.194;2023-04-24T01:37:27;4.32;;;1.80;;
53646;SDS011;39550;52.230;5.194;2023-04-24T01:39:52;4.38;;;1.80;;
53646;SDS011;39550;52.230;5.194;2023-04-24T01:42:18;2.88;;;1.60;;
53646;SDS011;39550;52.230;5.194;2023-04-24T01:44:43;4.18;;;1.88;;
53646;SDS011;39550;52.230;5.194;2023-04-24T01:47:09;3.72;;;1.90;;
53646;SDS011;39550;52.230;5.194;2023-04-24T01:49:36;3.80;;;1.80;;
53646;SDS011;39550;52.230;5.194;2023-04-24T01:52:03;2.63;;;1.60;;
53646;SDS011;39550;52.230;5.194;2023-04-24T01:54:28;3.42;;;1.70;;
53646;SDS011;39550;52.230;5.194;2023-04-24T01:56:53;3.47;;;1.77;;
53646;SDS011;39550;52.230;5.194;2023-04-24T01:59:18;3.53;;;1.73;;
53646;SDS011;39550;52.230;5.194;2023-04-24T02:01:46;4.00;;;1.90;;
53646;SDS011;39550;52.230;5.194;2023-04-24T02:04:11;4.82;;;1.70;;
53646;SDS011;39550;52.230;5.194;2023-04-24T02:06:37;2.55;;;1.60;;
53646;SDS011;39550;52.230;5.194;2023-04-24T02:09:02;3.53;;;1.67;;
53646;SDS011;39550;52.230;5.194;2023-04-24T02:11:28;2.70;;;1.70;;
53646;SDS011;39550;52.230;5.194;2023-04-24T02:13:53;3.67;;;2.03;;
53646;SDS011;39550;52.230;5.194;2023-04-24T02:16:19;2.83;;;1.60;;
53646;SDS011;39550;52.230;5.194;2023-04-24T02:18:44;3.47;;;1.60;;
53646;SDS011;39550;52.230;5.194;2023-04-24T02:21:10;3.03;;;1.70;;
53646;SDS011;39550;52.230;5.194;2023-04-24T02:23:35;3.13;;;1.60;;
53646;SDS011;39550;52.230;5.194;2023-04-24T02:26:01;2.83;;;1.63;;
53646;SDS011;39550;52.230;5.194;2023-04-24T02:28:27;4.15;;;1.80;;
53646;SDS011;39550;52.230;5.194;2023-04-24T02:30:53;2.85;;;1.70;;
53646;SDS011;39550;52.230;5.194;2023-04-24T02:33:18;2.35;;;1.60;;
53646;SDS011;39550;52.230;5.194;2023-04-24T02:35:43;2.53;;;1.60;;
53646;SDS011;39550;52.230;5.194;2023-04-24T02:38:08;3.08;;;1.60;;
53646;SDS011;39550;52.230;5.194;2023-04-24T02:40:34;2.65;;;1.60;;
53646;SDS011;39550;52.230;5.194;2023-04-24T02:42:59;3.38;;;1.70;;
53646;SDS011;39550;52.230;5.194;2023-04-24T02:45:25;2.55;;;1.60;;
53646;SDS011;39550;52.230;5.194;2023-04-24T02:47:50;3.10;;;1.73;;
53646;SDS011;39550;52.230;5.194;2023-04-24T02:50:15;4.00;;;1.80;;
53646;SDS011;39550;52.230;5.194;2023-04-24T02:52:41;2.60;;;1.65;;
53646;SDS011;39550;52.230;5.194;2023-04-24T02:55:06;2.58;;;1.60;;
53646;SDS011;39550;52.230;5.194;2023-04-24T02:57:33;2.95;;;1.60;;
53646;SDS011;39550;52.230;5.194;2023-04-24T02:59:58;2.63;;;1.60;;
53646;SDS011;39550;52.230;5.194;2023-04-24T03:02:23;2.60;;;1.50;;
53646;SDS011;39550;52.230;5.194;2023-04-24T03:04:49;2.88;;;1.58;;
53646;SDS011;39550;52.230;5.194;2023-04-24T03:07:14;2.38;;;1.60;;
53646;SDS011;39550;52.230;5.194;2023-04-24T03:09:40;2.55;;;1.60;;
53646;SDS011;39550;52.230;5.194;2023-04-24T03:12:05;3.13;;;1.63;;
53646;SDS011;39550;52.230;5.194;2023-04-24T03:14:31;2.60;;;1.50;;
53646;SDS011;39550;52.230;5.194;2023-04-24T03:16:56;2.72;;;1.60;;
53646;SDS011;39550;52.230;5.194;2023-04-24T03:19:22;2.90;;;1.70;;
53646;SDS011;39550;52.230;5.194;2023-04-24T03:21:47;3.80;;;1.80;;
53646;SDS011;39550;52.230;5.194;2023-04-24T03:24:13;3.05;;;1.60;;
53646;SDS011;39550;52.230;5.194;2023-04-24T03:26:38;2.67;;;1.60;;
53646;SDS011;39550;52.230;5.194;2023-04-24T03:29:04;2.55;;;1.50;;
53646;SDS011;39550;52.230;5.194;2023-04-24T03:31:29;2.08;;;1.42;;
53646;SDS011;39550;52.230;5.194;2023-04-24T03:33:54;2.85;;;1.70;;
53646;SDS011;39550;52.230;5.194;2023-04-24T03:36:20;3.30;;;1.70;;
53646;SDS011;39550;52.230;5.194;2023-04-24T03:38:45;3.00;;;1.75;;
53646;SDS011;39550;52.230;5.194;2023-04-24T03:41:10;2.63;;;1.70;;
53646;SDS011;39550;52.230;5.194;2023-04-24T03:43:36;3.03;;;1.65;;
53646;SDS011;39550;52.230;5.194;2023-04-24T03:46:02;2.40;;;1.50;;
53646;SDS011;39550;52.230;5.194;2023-04-24T03:48:27;2.78;;;1.60;;
53646;SDS011;39550;52.230;5.194;2023-04-24T03:50:53;3.38;;;1.55;;
53646;SDS011;39550;52.230;5.194;2023-04-24T03:53:18;2.42;;;1.55;;
53646;SDS011;39550;52.230;5.194;2023-04-24T03:55:44;2.40;;;1.45;;
53646;SDS011;39550;52.230;5.194;2023-04-24T03:58:11;3.42;;;1.70;;
53646;SDS011;39550;52.230;5.194;2023-04-24T04:00:36;2.72;;;1.77;;
53646;SDS011;39550;52.230;5.194;2023-04-24T04:03:02;2.83;;;1.70;;
53646;SDS011;39550;52.230;5.194;2023-04-24T04:05:28;2.90;;;1.60;;
53646;SDS011;39550;52.230;5.194;2023-04-24T04:07:54;3.25;;;1.85;;
53646;SDS011;39550;52.230;5.194;2023-04-24T04:10:19;2.35;;;1.45;;
53646;SDS011;39550;52.230;5.194;2023-04-24T04:12:45;2.75;;;1.70;;
53646;SDS011;39550;52.230;5.194;2023-04-24T04:15:10;3.70;;;2.05;;
53646;SDS011;39550;52.230;5.194;2023-04-24T04:17:36;2.78;;;1.60;;
53646;SDS011;39550;52.230;5.194;2023-04-24T04:20:03;3.10;;;1.75;;
53646;SDS011;39550;52.230;5.194;2023-04-24T04:22:32;2.58;;;1.58;;
53646;SDS011;39550;52.230;5.194;2023-04-24T04:24:57;3.03;;;1.63;;
53646;SDS011;39550;52.230;5.194;2023-04-24T04:27:22;2.50;;;1.60;;
53646;SDS011;39550;52.230;5.194;2023-04-24T04:29:48;3.90;;;1.80;;
53646;SDS011;39550;52.230;5.194;2023-04-24T04:32:13;3.47;;;1.70;;
53646;SDS011;39550;52.230;5.194;2023-04-24T04:34:38;4.03;;;1.80;;
53646;SDS011;39550;52.230;5.194;2023-04-24T04:37:04;3.45;;;1.80;;
53646;SDS011;39550;52.230;5.194;2023-04-24T04:39:30;2.42;;;1.50;;
53646;SDS011;39550;52.230;5.194;2023-04-24T04:41:56;2.55;;;1.70;;
53646;SDS011;39550;52.230;5.194;2023-04-24T04:54:35;2.85;;;1.83;;
53646;SDS011;39550;52.230;5.194;2023-04-24T04:57:00;3.50;;;1.60;;
53646;SDS011;39550;52.230;5.194;2023-04-24T04:59:26;3.65;;;1.85;;
53646;SDS011;39550;52.230;5.194;2023-04-24T05:01:52;3.53;;;1.98;;
53646;SDS011;39550;52.230;5.194;2023-04-24T05:04:17;2.60;;;1.60;;
53646;SDS011;39550;52.230;5.194;2023-04-24T05:06:43;3.30;;;1.90;;
53646;SDS011;39550;52.230;5.194;2023-04-24T05:09:08;3.15;;;1.80;;
53646;SDS011;39550;52.230;5.194;2023-04-24T05:11:33;2.80;;;1.70;;
53646;SDS011;39550;52.230;5.194;2023-04-24T05:13:59;3.40;;;1.80;;
53646;SDS011;39550;52.230;5.194;2023-04-24T05:16:24;4.00;;;2.05;;
53646;SDS011;39550;52.230;5.194;2023-04-24T05:18:50;2.83;;;1.70;;
53646;SDS011;39550;52.230;5.194;2023-04-24T05:21:15;3.85;;;2.00;;
53646;SDS011;39550;52.230;5.194;2023-04-24T05:23:41;2.95;;;1.67;;
53646;SDS011;39550;52.230;5.194;2023-04-24T05:26:06;3.53;;;1.80;;
53646;SDS011;39550;52.230;5.194;2023-04-24T05:28:31;3.60;;;1.90;;
53646;SDS011;39550;52.230;5.194;2023-04-24T05:30:57;3.28;;;1.80;;
53646;SDS011;39550;52.230;5.194;2023-04-24T05:33:24;3.25;;;1.80;;
53646;SDS011;39550;52.230;5.194;2023-04-24T05:35:49;2.95;;;1.77;;
53646;SDS011;39550;52.230;5.194;2023-04-24T05:38:14;4.22;;;1.90;;
53646;SDS011;39550;52.230;5.194;2023-04-24T05:40:42;5.07;;;1.90;;
53646;SDS011;39550;52.230;5.194;2023-04-24T05:43:08;4.75;;;1.65;;
53646;SDS011;39550;52.230;5.194;2023-04-24T05:45:33;4.22;;;1.65;;
53646;SDS011;39550;52.230;5.194;2023-04-24T05:48:00;3.50;;;1.80;;
53646;SDS011;39550;52.230;5.194;2023-04-24T05:50:26;3.53;;;1.85;;
53646;SDS011;39550;52.230;5.194;2023-04-24T05:52:52;3.72;;;1.80;;
53646;SDS011;39550;52.230;5.194;2023-04-24T05:55:17;3.67;;;1.95;;
53646;SDS011;39550;52.230;5.194;2023-04-24T05:57:43;2.78;;;1.67;;
53646;SDS011;39550;52.230;5.194;2023-04-24T06:00:09;3.75;;;1.77;;
53646;SDS011;39550;52.230;5.194;2023-04-24T06:02:37;3.78;;;1.80;;
53646;SDS011;39550;52.230;5.194;2023-04-24T06:05:02;2.83;;;1.65;;
53646;SDS011;39550;52.230;5.194;2023-04-24T06:07:29;2.97;;;1.58;;
53646;SDS011;39550;52.230;5.194;2023-04-24T06:09:55;2.80;;;1.58;;
53646;SDS011;39550;52.230;5.194;2023-04-24T06:12:20;2.53;;;1.60;;
53646;SDS011;39550;52.230;5.194;2023-04-24T06:14:46;3.60;;;1.90;;
53646;SDS011;39550;52.230;5.194;2023-04-24T06:17:11;2.95;;;1.70;;
53646;SDS011;39550;52.230;5.194;2023-04-24T06:19:37;3.20;;;1.77;;
53646;SDS011;39550;52.230;5.194;2023-04-24T06:22:02;4.50;;;2.40;;
53646;SDS011;39550;52.230;5.194;2023-04-24T06:24:28;5.20;;;2.20;;
53646;SDS011;39550;52.230;5.194;2023-04-24T06:26:53;6.50;;;2.55;;
53646;SDS011;39550;52.230;5.194;2023-04-24T06:29:19;6.43;;;3.35;;
53646;SDS011;39550;52.230;5.194;2023-04-24T06:31:44;9.18;;;3.83;;
53646;SDS011;39550;52.230;5.194;2023-04-24T06:34:10;7.15;;;4.10;;
53646;SDS011;39550;52.230;5.194;2023-04-24T06:36:35;8.75;;;4.72;;
53646;SDS011;39550;52.230;5.194;2023-04-24T06:39:00;6.32;;;3.72;;
53646;SDS011;39550;52.230;5.194;2023-04-24T06:41:26;10.25;;;5.18;;
53646;SDS011;39550;52.230;5.194;2023-04-24T06:43:53;7.20;;;4.55;;
53646;SDS011;39550;52.230;5.194;2023-04-24T06:46:18;8.20;;;4.50;;
53646;SDS011;39550;52.230;5.194;2023-04-24T06:48:43;9.68;;;4.80;;
53646;SDS011;39550;52.230;5.194;2023-04-24T06:51:09;8.90;;;5.03;;
53646;SDS011;39550;52.230;5.194;2023-04-24T06:53:35;8.52;;;5.53;;
53646;SDS011;39550;52.230;5.194;2023-04-24T06:56:00;7.40;;;4.93;;
53646;SDS011;39550;52.230;5.194;2023-04-24T06:58:26;10.95;;;5.78;;
53646;SDS011;39550;52.230;5.194;2023-04-24T07:00:51;9.30;;;5.63;;
53646;SDS011;39550;52.230;5.194;2023-04-24T07:03:16;8.23;;;5.80;;
53646;SDS011;39550;52.230;5.194;2023-04-24T07:05:41;9.88;;;5.88;;
53646;SDS011;39550;52.230;5.194;2023-04-24T07:08:07;7.32;;;5.22;;
53646;SDS011;39550;52.230;5.194;2023-04-24T07:10:33;9.00;;;5.82;;
53646;SDS011;39550;52.230;5.194;2023-04-24T07:13:00;10.45;;;5.80;;
53646;SDS011;39550;52.230;5.194;2023-04-24T07:15:26;7.90;;;5.90;;
53646;SDS011;39550;52.230;5.194;2023-04-24T07:17:52;9.25;;;4.70;;
53646;SDS011;39550;52.230;5.194;2023-04-24T07:31:03;11.88;;;6.05;;
53646;SDS011;39550;52.230;5.194;2023-04-24T07:33:28;9.90;;;5.57;;
53646;SDS011;39550;52.230;5.194;2023-04-24T07:35:53;9.55;;;5.72;;
53646;SDS011;39550;52.230;5.194;2023-04-24T07:38:19;10.27;;;6.13;;
53646;SDS011;39550;52.230;5.194;2023-04-24T07:40:47;8.85;;;5.25;;
53646;SDS011;39550;52.230;5.194;2023-04-24T07:43:13;12.50;;;6.03;;
53646;SDS011;39550;52.230;5.194;2023-04-24T07:45:39;8.80;;;5.43;;
53646;SDS011;39550;52.230;5.194;2023-04-24T07:51:26;8.82;;;5.85;;
53646;SDS011;39550;52.230;5.194;2023-04-24T07:53:55;10.05;;;6.15;;
53646;SDS011;39550;52.230;5.194;2023-04-24T07:56:21;7.97;;;5.70;;
53646;SDS011;39550;52.230;5.194;2023-04-24T07:58:46;7.68;;;5.28;;
53646;SDS011;39550;52.230;5.194;2023-04-24T08:01:12;10.57;;;5.25;;
53646;SDS011;39550;52.230;5.194;2023-04-24T08:03:37;8.27;;;5.70;;
53646;SDS011;39550;52.230;5.194;2023-04-24T08:06:02;9.25;;;5.55;;
53646;SDS011;39550;52.230;5.194;2023-04-24T08:08:28;12.20;;;6.00;;
53646;SDS011;39550;52.230;5.194;2023-04-24T08:10:53;8.95;;;5.60;;
53646;SDS011;39550;52.230;5.194;2023-04-24T08:13:19;9.68;;;5.18;;
53646;SDS011;39550;52.230;5.194;2023-04-24T08:15:45;9.18;;;5.47;;
53646;SDS011;39550;52.230;5.194;2023-04-24T08:18:10;10.23;;;5.28;;
53646;SDS011;39550;52.230;5.194;2023-04-24T08:20:37;7.88;;;4.65;;
53646;SDS011;39550;52.230;5.194;2023-04-24T08:23:02;9.93;;;5.38;;
53646;SDS011;39550;52.230;5.194;2023-04-24T08:25:28;8.73;;;4.78;;
53646;SDS011;39550;52.230;5.194;2023-04-24T08:27:53;12.32;;;5.47;;
53646;SDS011;39550;52.230;5.194;2023-04-24T08:30:19;12.65;;;5.00;;
53646;SDS011;39550;52.230;5.194;2023-04-24T08:32:45;9.43;;;4.68;;
53646;SDS011;39550;52.230;5.194;2023-04-24T08:35:11;8.73;;;4.90;;
53646;SDS011;39550;52.230;5.194;2023-04-24T08:37:36;9.88;;;4.43;;
53646;SDS011;39550;52.230;5.194;2023-04-24T08:40:03;11.23;;;4.70;;
53646;SDS011;39550;52.230;5.194;2023-04-24T08:42:35;9.50;;;4.85;;
53646;SDS011;39550;52.230;5.194;2023-04-24T08:45:02;9.90;;;4.82;;
53646;SDS011;39550;52.230;5.194;2023-04-24T08:47:27;10.25;;;5.13;;
53646;SDS011;39550;52.230;5.194;2023-04-24T08:49:54;9.45;;;4.78;;
53646;SDS011;39550;52.230;5.194;2023-04-24T08:52:20;8.15;;;4.07;;
53646;SDS011;39550;52.230;5.194;2023-04-24T08:54:47;10.48;;;4.78;;
53646;SDS011;39550;52.230;5.194;2023-04-24T08:57:12;10.05;;;4.20;;
53646;SDS011;39550;52.230;5.194;2023-04-24T08:59:39;10.07;;;5.07;;
53646;SDS011;39550;52.230;5.194;2023-04-24T09:02:05;8.23;;;4.28;;
53646;SDS011;39550;52.230;5.194;2023-04-24T09:04:34;11.30;;;4.70;;
53646;SDS011;39550;52.230;5.194;2023-04-24T09:07:00;8.02;;;4.22;;
53646;SDS011;39550;52.230;5.194;2023-04-24T09:09:26;9.23;;;4.05;;
53646;SDS011;39550;52.230;5.194;2023-04-24T09:11:55;8.80;;;4.18;;
53646;SDS011;39550;52.230;5.194;2023-04-24T09:14:22;10.95;;;4.68;;
53646;SDS011;39550;52.230;5.194;2023-04-24T09:16:48;8.40;;;4.55;;
53646;SDS011;39550;52.230;5.194;2023-04-24T09:19:14;7.88;;;4.35;;
53646;SDS011;39550;52.230;5.194;2023-04-24T09:21:40;8.50;;;4.80;;
53646;SDS011;39550;52.230;5.194;2023-04-24T09:24:08;8.98;;;4.43;;
53646;SDS011;39550;52.230;5.194;2023-04-24T09:30:04;8.15;;;3.97;;
53646;SDS011;39550;52.230;5.194;2023-04-24T09:32:29;11.05;;;4.53;;
53646;SDS011;39550;52.230;5.194;2023-04-24T09:35:09;8.80;;;4.07;;
53646;SDS011;39550;52.230;5.194;2023-04-24T09:37:36;11.07;;;4.47;;
53646;SDS011;39550;52.230;5.194;2023-04-24T09:40:07;7.88;;;3.60;;
53646;SDS011;39550;52.230;5.194;2023-04-24T09:42:44;6.88;;;3.88;;
53646;SDS011;39550;52.230;5.194;2023-04-24T09:55:35;6.70;;;3.25;;
53646;SDS011;39550;52.230;5.194;2023-04-24T09:58:04;9.55;;;3.70;;
53646;SDS011;39550;52.230;5.194;2023-04-24T10:00:31;7.97;;;4.00;;
53646;SDS011;39550;52.230;5.194;2023-04-24T10:02:58;9.23;;;4.30;;
53646;SDS011;39550;52.230;5.194;2023-04-24T10:05:31;10.45;;;4.10;;
53646;SDS011;39550;52.230;5.194;2023-04-24T10:08:00;9.05;;;3.50;;
53646;SDS011;39550;52.230;5.194;2023-04-24T10:10:30;7.60;;;4.00;;
53646;SDS011;39550;52.230;5.194;2023-04-24T10:12:57;8.02;;;3.70;;
53646;SDS011;39550;52.230;5.194;2023-04-24T10:15:22;9.68;;;4.35;;
53646;SDS011;39550;52.230;5.194;2023-04-24T10:17:48;7.85;;;3.58;;
53646;SDS011;39550;52.230;5.194;2023-04-24T10:20:21;6.80;;;3.25;;
53646;SDS011;39550;52.230;5.194;2023-04-24T10:22:48;7.30;;;3.78;;
53646;SDS011;39550;52.230;5.194;2023-04-24T10:25:20;9.75;;;3.00;;
53646;SDS011;39550;52.230;5.194;2023-04-24T10:27:51;6.97;;;3.30;;
53646;SDS011;39550;52.230;5.194;2023-04-24T10:30:20;8.70;;;3.35;;
53646;SDS011;39550;52.230;5.194;2023-04-24T10:32:46;4.63;;;3.13;;
53646;SDS011;39550;52.230;5.194;2023-04-24T10:35:12;6.10;;;3.08;;
53646;SDS011;39550;52.230;5.194;2023-04-24T10:37:42;7.00;;;3.10;;
53646;SDS011;39550;52.230;5.194;2023-04-24T10:40:17;8.00;;;2.95;;
53646;SDS011;39550;52.230;5.194;2023-04-24T10:42:46;6.60;;;3.28;;
53646;SDS011;39550;52.230;5.194;2023-04-24T10:45:16;7.05;;;3.03;;
53646;SDS011;39550;52.230;5.194;2023-04-24T10:48:05;6.63;;;3.13;;
53646;SDS011;39550;52.230;5.194;2023-04-24T10:50:46;9.98;;;3.38;;
53646;SDS011;39550;52.230;5.194;2023-04-24T10:53:17;6.88;;;3.30;;
53646;SDS011;39550;52.230;5.194;2023-04-24T10:55:46;7.28;;;3.15;;
53646;SDS011;39550;52.230;5.194;2023-04-24T10:58:13;7.68;;;3.00;;
53646;SDS011;39550;52.230;5.194;2023-04-24T11:00:40;6.30;;;2.50;;
53646;SDS011;39550;52.230;5.194;2023-04-24T11:05:55;7.10;;;3.47;;
53646;SDS011;39550;52.230;5.194;2023-04-24T11:08:23;5.40;;;2.58;;
53646;SDS011;39550;52.230;5.194;2023-04-24T11:11:10;5.70;;;2.53;;
53646;SDS011;39550;52.230;5.194;2023-04-24T11:21:44;6.85;;;2.70;;
53646;SDS011;39550;52.230;5.194;2023-04-24T11:24:40;5.50;;;2.72;;
53646;SDS011;39550;52.230;5.194;2023-04-24T11:27:20;8.80;;;2.80;;
53646;SDS011;39550;52.230;5.194;2023-04-24T11:34:54;7.90;;;2.40;;
53646;SDS011;39550;52.230;5.194;2023-04-24T11:37:22;5.75;;;2.67;;
53646;SDS011;39550;52.230;5.194;2023-04-24T11:39:52;4.70;;;2.50;;
53646;SDS011;39550;52.230;5.194;2023-04-24T11:42:22;5.00;;;2.25;;
53646;SDS011;39550;52.230;5.194;2023-04-24T11:44:49;4.38;;;2.20;;
53646;SDS011;39550;52.230;5.194;2023-04-24T11:47:16;4.78;;;1.85;;
53646;SDS011;39550;52.230;5.194;2023-04-24T11:49:42;5.35;;;2.15;;
53646;SDS011;39550;52.230;5.194;2023-04-24T11:52:07;6.00;;;2.38;;
53646;SDS011;39550;52.230;5.194;2023-04-24T11:54:33;5.05;;;2.10;;
53646;SDS011;39550;52.230;5.194;2023-04-24T11:56:58;6.65;;;2.10;;
53646;SDS011;39550;52.230;5.194;2023-04-24T11:59:24;4.90;;;2.30;;
53646;SDS011;39550;52.230;5.194;2023-04-24T12:01:50;4.18;;;2.40;;
53646;SDS011;39550;52.230;5.194;2023-04-24T12:04:16;4.00;;;1.80;;
53646;SDS011;39550;52.230;5.194;2023-04-24T12:09:28;4.50;;;1.98;;
53646;SDS011;39550;52.230;5.194;2023-04-24T12:11:53;4.90;;;2.20;;
53646;SDS011;39550;52.230;5.194;2023-04-24T12:14:21;5.43;;;2.03;;
53646;SDS011;39550;52.230;5.194;2023-04-24T12:16:48;4.78;;;2.20;;
53646;SDS011;39550;52.230;5.194;2023-04-24T12:19:23;4.75;;;2.10;;
53646;SDS011;39550;52.230;5.194;2023-04-24T12:22:01;4.55;;;2.15;;
53646;SDS011;39550;52.230;5.194;2023-04-24T12:24:28;5.40;;;2.33;;
53646;SDS011;39550;52.230;5.194;2023-04-24T12:26:55;5.65;;;2.55;;
53646;SDS011;39550;52.230;5.194;2023-04-24T12:29:21;6.30;;;2.03;;
53646;SDS011;39550;52.230;5.194;2023-04-24T12:31:47;6.15;;;2.30;;
53646;SDS011;39550;52.230;5.194;2023-04-24T12:36:48;6.90;;;2.10;;
53646;SDS011;39550;52.230;5.194;2023-04-24T12:39:18;4.68;;;1.90;;
53646;SDS011;39550;52.230;5.194;2023-04-24T12:41:56;4.97;;;2.53;;
53646;SDS011;39550;52.230;5.194;2023-04-24T12:44:32;4.78;;;2.53;;
53646;SDS011;39550;52.230;5.194;2023-04-24T12:46:59;4.70;;;2.20;;
53646;SDS011;39550;52.230;5.194;2023-04-24T12:49:25;5.05;;;2.20;;
53646;SDS011;39550;52.230;5.194;2023-04-24T12:51:51;5.55;;;2.30;;
53646;SDS011;39550;52.230;5.194;2023-04-24T12:54:16;5.13;;;2.50;;
53646;SDS011;39550;52.230;5.194;2023-04-24T12:56:42;9.25;;;3.15;;
53646;SDS011;39550;52.230;5.194;2023-04-24T12:59:07;6.95;;;2.47;;
53646;SDS011;39550;52.230;5.194;2023-04-24T13:01:33;7.25;;;3.08;;
53646;SDS011;39550;52.230;5.194;2023-04-24T13:03:58;9.07;;;3.45;;
53646;SDS011;39550;52.230;5.194;2023-04-24T13:06:23;4.97;;;2.22;;
53646;SDS011;39550;52.230;5.194;2023-04-24T13:08:49;5.93;;;2.55;;
53646;SDS011;39550;52.230;5.194;2023-04-24T13:11:14;6.15;;;2.65;;
53646;SDS011;39550;52.230;5.194;2023-04-24T13:13:39;8.35;;;3.10;;
53646;SDS011;39550;52.230;5.194;2023-04-24T13:16:05;7.55;;;3.00;;
53646;SDS011;39550;52.230;5.194;2023-04-24T13:18:30;8.93;;;3.13;;
53646;SDS011;39550;52.230;5.194;2023-04-24T13:20:56;9.18;;;3.22;;
53646;SDS011;39550;52.230;5.194;2023-04-24T13:23:21;13.63;;;4.25;;
53646;SDS011;39550;52.230;5.194;2023-04-24T13:28:24;7.57;;;3.85;;
53646;SDS011;39550;52.230;5.194;2023-04-24T13:30:50;7.85;;;3.50;;
53646;SDS011;39550;52.230;5.194;2023-04-24T13:33:16;7.85;;;3.50;;
53646;SDS011;39550;52.230;5.194;2023-04-24T13:35:41;8.25;;;3.53;;
53646;SDS011;39550;52.230;5.194;2023-04-24T13:38:07;9.00;;;3.15;;
53646;SDS011;39550;52.230;5.194;2023-04-24T13:40:32;10.52;;;4.20;;
53646;SDS011;39550;52.230;5.194;2023-04-24T13:42:58;7.03;;;3.55;;
53646;SDS011;39550;52.230;5.194;2023-04-24T13:45:23;8.52;;;3.55;;
53646;SDS011;39550;52.230;5.194;2023-04-24T13:47:48;10.40;;;3.33;;
53646;SDS011;39550;52.230;5.194;2023-04-24T13:50:14;9.55;;;4.00;;
53646;SDS011;39550;52.230;5.194;2023-04-24T13:52:40;8.20;;;3.72;;
53646;SDS011;39550;52.230;5.194;2023-04-24T13:55:05;10.45;;;3.70;;
53646;SDS011;39550;52.230;5.194;2023-04-24T13:57:31;10.35;;;3.95;;
53646;SDS011;39550;52.230;5.194;2023-04-24T13:59:57;9.02;;;3.95;;
53646;SDS011;39550;52.230;5.194;2023-04-24T14:02:26;12.30;;;3.72;;
53646;SDS011;39550;52.230;5.194;2023-04-24T14:04:51;10.63;;;4.32;;
53646;SDS011;39550;52.230;5.194;2023-04-24T14:07:17;9.30;;;3.40;;
53646;SDS011;39550;52.230;5.194;2023-04-24T14:09:42;9.18;;;3.55;;
53646;SDS011;39550;52.230;5.194;2023-04-24T14:12:07;9.82;;;4.07;;
53646;SDS011;39550;52.230;5.194;2023-04-24T14:14:32;7.60;;;3.53;;
53646;SDS011;39550;52.230;5.194;2023-04-24T14:16:58;6.82;;;3.45;;
53646;SDS011;39550;52.230;5.194;2023-04-24T14:19:23;8.10;;;3.90;;
53646;SDS011;39550;52.230;5.194;2023-04-24T14:21:49;8.23;;;3.28;;
53646;SDS011;39550;52.230;5.194;2023-04-24T14:24:14;11.88;;;4.55;;
53646;SDS011;39550;52.230;5.194;2023-04-24T14:26:40;12.85;;;4.25;;
53646;SDS011;39550;52.230;5.194;2023-04-24T14:29:05;12.40;;;4.07;;
53646;SDS011;39550;52.230;5.194;2023-04-24T14:31:31;8.95;;;4.35;;
53646;SDS011;39550;52.230;5.194;2023-04-24T14:33:56;7.88;;;3.72;;
53646;SDS011;39550;52.230;5.194;2023-04-24T14:36:22;9.15;;;4.43;;
53646;SDS011;39550;52.230;5.194;2023-04-24T14:38:48;9.73;;;4.55;;
53646;SDS011;39550;52.230;5.194;2023-04-24T14:41:14;10.05;;;4.03;;
53646;SDS011;39550;52.230;5.194;2023-04-24T14:43:39;7.55;;;3.40;;
53646;SDS011;39550;52.230;5.194;2023-04-24T14:46:05;12.00;;;4.10;;
53646;SDS011;39550;52.230;5.194;2023-04-24T14:48:30;9.82;;;4.53;;
53646;SDS011;39550;52.230;5.194;2023-04-24T14:50:56;8.82;;;4.13;;
53646;SDS011;39550;52.230;5.194;2023-04-24T14:53:21;10.10;;;3.70;;
53646;SDS011;39550;52.230;5.194;2023-04-24T14:55:46;7.97;;;3.90;;
53646;SDS011;39550;52.230;5.194;2023-04-24T14:58:12;10.50;;;4.07;;
53646;SDS011;39550;52.230;5.194;2023-04-24T15:00:37;13.63;;;4.75;;
53646;SDS011;39550;52.230;5.194;2023-04-24T15:03:03;7.40;;;3.85;;
53646;SDS011;39550;52.230;5.194;2023-04-24T15:05:28;10.20;;;3.88;;
53646;SDS011;39550;52.230;5.194;2023-04-24T15:07:55;6.95;;;3.50;;
53646;SDS011;39550;52.230;5.194;2023-04-24T15:10:20;8.98;;;4.07;;
53646;SDS011;39550;52.230;5.194;2023-04-24T15:12:47;11.55;;;4.15;;
53646;SDS011;39550;52.230;5.194;2023-04-24T15:15:13;9.50;;;4.22;;
53646;SDS011;39550;52.230;5.194;2023-04-24T15:17:38;10.65;;;4.75;;
53646;SDS011;39550;52.230;5.194;2023-04-24T15:20:04;10.23;;;4.15;;
53646;SDS011;39550;52.230;5.194;2023-04-24T15:22:31;14.45;;;4.63;;
53646;SDS011;39550;52.230;5.194;2023-04-24T15:24:56;9.45;;;4.60;;
53646;SDS011;39550;52.230;5.194;2023-04-24T15:27:22;10.90;;;4.10;;
53646;SDS011;39550;52.230;5.194;2023-04-24T15:29:47;13.02;;;4.50;;
53646;SDS011;39550;52.230;5.194;2023-04-24T15:32:12;10.43;;;4.93;;
53646;SDS011;39550;52.230;5.194;2023-04-24T15:34:38;11.05;;;4.45;;
53646;SDS011;39550;52.230;5.194;2023-04-24T15:37:03;10.57;;;4.35;;
53646;SDS011;39550;52.230;5.194;2023-04-24T15:39:29;12.55;;;4.65;;
53646;SDS011;39550;52.230;5.194;2023-04-24T15:41:55;7.88;;;4.28;;